createdAt,value
2023-03-17T00:02:18.960Z,28.86
2023-03-17T00:06:18.593Z,28.86
2023-03-17T00:10:18.778Z,28.79
2023-03-17T00:14:19.021Z,28.80
2023-03-17T00:18:19.202Z,28.74
2023-03-17T00:22:19.413Z,28.70
2023-03-17T00:26:19.642Z,28.64
2023-03-17T00:30:19.880Z,28.59
2023-03-17T00:34:20.070Z,28.53
2023-03-17T00:38:20.305Z,28.58
2023-03-17T00:42:20.483Z,28.55
2023-03-17T00:46:20.799Z,28.48
2023-03-17T00:50:20.907Z,28.55
2023-03-17T00:54:21.113Z,28.45
2023-03-17T00:58:21.347Z,28.48
2023-03-17T01:02:21.605Z,28.44
2023-03-17T01:06:21.774Z,28.44
2023-03-17T01:10:21.973Z,28.46
2023-03-17T01:14:22.190Z,28.40
2023-03-17T01:18:22.570Z,28.31
2023-03-17T01:22:22.357Z,28.30
2023-03-17T01:26:25.054Z,28.26
2023-03-17T01:30:22.293Z,28.19
2023-03-17T01:34:22.282Z,28.22
2023-03-17T01:38:22.241Z,28.23
2023-03-17T01:42:22.212Z,28.14
2023-03-17T01:46:22.128Z,28.19
2023-03-17T01:50:22.129Z,28.10
2023-03-17T01:54:22.146Z,28.06
2023-03-17T01:58:22.094Z,28.05
2023-03-17T02:02:22.054Z,28.05
2023-03-17T02:06:22.053Z,28.05
2023-03-17T02:10:22.016Z,28.04
2023-03-17T02:14:21.964Z,28.00
2023-03-17T02:18:21.916Z,28.00
2023-03-17T02:22:21.884Z,27.97
2023-03-17T02:26:21.850Z,27.89
2023-03-17T02:30:21.807Z,27.82
2023-03-17T02:34:21.954Z,27.81
2023-03-17T02:38:21.923Z,27.80
2023-03-17T02:42:21.885Z,27.89
2023-03-17T02:46:21.895Z,27.86
2023-03-17T02:50:21.810Z,27.75
2023-03-17T02:54:21.741Z,27.88
2023-03-17T02:58:21.748Z,27.78
2023-03-17T03:02:21.770Z,27.79
2023-03-17T03:06:21.681Z,27.68
2023-03-17T03:10:21.613Z,27.68
2023-03-17T03:14:21.566Z,27.86
2023-03-17T03:18:21.653Z,27.64
2023-03-17T03:22:21.791Z,27.80
2023-03-17T03:26:21.951Z,27.75
2023-03-17T03:30:22.176Z,27.66
2023-03-17T03:34:22.377Z,27.64
2023-03-17T03:38:22.568Z,27.68
2023-03-17T03:42:22.704Z,27.71
2023-03-17T03:46:22.882Z,27.58
2023-03-17T03:50:22.981Z,27.52
2023-03-17T03:54:23.130Z,27.60
2023-03-17T03:58:23.237Z,27.63
2023-03-17T04:02:23.417Z,27.49
2023-03-17T04:06:23.427Z,27.51
2023-03-17T04:10:23.520Z,27.50
2023-03-17T04:14:23.598Z,27.43
2023-03-17T04:18:23.696Z,27.43
2023-03-17T04:22:23.744Z,27.51
2023-03-17T04:26:23.694Z,27.49
2023-03-17T04:30:23.674Z,27.34
2023-03-17T04:34:23.681Z,27.35
2023-03-17T04:38:23.656Z,27.24
2023-03-17T04:42:23.716Z,27.30
2023-03-17T04:46:23.663Z,27.42
2023-03-17T04:50:23.630Z,27.36
2023-03-17T04:54:23.648Z,27.38
2023-03-17T04:58:30.857Z,27.28
2023-03-17T05:02:24.611Z,27.36
2023-03-17T05:06:23.580Z,27.38
2023-03-17T05:10:23.596Z,27.35
2023-03-17T05:14:23.601Z,27.26
2023-03-17T05:18:23.577Z,27.17
2023-03-17T05:22:23.557Z,27.19
2023-03-17T05:26:23.559Z,27.16
2023-03-17T05:30:23.547Z,27.16
2023-03-17T05:34:23.568Z,27.10
2023-03-17T05:38:23.515Z,27.11
2023-03-17T05:42:24.058Z,27.12
2023-03-17T05:46:23.506Z,27.15
2023-03-17T05:50:23.463Z,27.06
2023-03-17T05:54:23.446Z,27.06
2023-03-17T05:58:23.457Z,27.06
2023-03-17T06:02:23.480Z,27.20
2023-03-17T06:06:23.440Z,27.12
2023-03-17T06:10:23.425Z,27.10
2023-03-17T06:14:24.131Z,27.15
2023-03-17T06:18:23.418Z,27.16
2023-03-17T06:22:23.359Z,27.23
2023-03-17T06:26:23.332Z,27.21
2023-03-17T06:30:23.338Z,27.29
2023-03-17T06:34:23.339Z,27.51
2023-03-17T06:38:23.304Z,27.44
2023-03-17T06:42:23.566Z,28.75
2023-03-17T06:46:23.441Z,29.17
2023-03-17T06:50:23.582Z,29.33
2023-03-17T06:54:23.592Z,29.68
2023-03-17T06:58:23.611Z,29.90
2023-03-17T07:02:23.610Z,28.57
2023-03-17T07:06:23.174Z,28.09
2023-03-17T07:10:23.598Z,28.00
2023-03-17T07:14:23.127Z,28.28
2023-03-17T07:18:23.109Z,27.69
2023-03-17T07:22:23.053Z,27.77
2023-03-17T07:26:23.030Z,28.12
2023-03-17T07:30:23.122Z,28.43
2023-03-17T07:34:23.197Z,27.08
2023-03-17T07:38:23.391Z,26.85
2023-03-17T07:42:23.600Z,26.54
2023-03-17T07:46:23.656Z,26.87
2023-03-17T07:50:23.606Z,26.99
2023-03-17T07:54:24.125Z,27.14
2023-03-17T07:58:23.412Z,27.75
2023-03-17T08:02:23.679Z,26.65
2023-03-17T08:06:23.369Z,26.72
2023-03-17T08:10:23.347Z,27.02
2023-03-17T08:14:23.638Z,26.79
2023-03-17T08:18:23.276Z,26.60
2023-03-17T08:22:23.631Z,26.97
2023-03-17T08:26:23.177Z,26.85
2023-03-17T08:30:23.157Z,27.55
2023-03-17T08:34:23.104Z,27.80
2023-03-17T08:38:23.629Z,27.46
2023-03-17T08:42:23.632Z,27.18
2023-03-17T08:46:23.744Z,26.30
2023-03-17T08:50:23.230Z,27.42
2023-03-17T08:54:23.654Z,28.57
2023-03-17T08:58:23.390Z,28.91
2023-03-17T09:02:23.703Z,29.39
2023-03-17T09:06:23.305Z,29.86
2023-03-17T09:10:23.289Z,30.27
2023-03-17T09:14:24.176Z,30.73
2023-03-17T09:18:23.659Z,31.11
2023-03-17T09:22:23.158Z,31.58
2023-03-17T09:26:23.126Z,31.88
2023-03-17T09:30:23.121Z,32.20
2023-03-17T09:34:23.026Z,32.51
2023-03-17T09:38:23.175Z,31.71
2023-03-17T09:42:23.173Z,31.48
2023-03-17T09:46:23.011Z,27.54
2023-03-17T09:50:23.166Z,26.10
2023-03-17T09:54:23.139Z,25.21
2023-03-17T09:58:22.805Z,25.41
2023-03-17T10:02:22.779Z,25.52
2023-03-17T10:06:22.799Z,25.62
2023-03-17T10:10:22.897Z,25.29
2023-03-17T10:14:23.191Z,24.98
2023-03-17T10:18:22.840Z,24.73
2023-03-17T10:22:22.781Z,24.77
2023-03-17T10:26:22.756Z,24.86
2023-03-17T10:30:23.181Z,25.17
2023-03-17T10:34:22.673Z,25.58
2023-03-17T10:38:22.663Z,25.72
2023-03-17T10:42:22.706Z,26.00
2023-03-17T10:46:22.764Z,25.97
2023-03-17T10:50:22.692Z,26.55
2023-03-17T10:54:22.566Z,27.30
2023-03-17T10:58:22.645Z,27.40
2023-03-17T11:02:23.202Z,27.76
2023-03-17T11:06:22.785Z,27.89
2023-03-17T11:10:23.222Z,27.78
2023-03-17T11:14:22.913Z,27.78
2023-03-17T11:18:22.978Z,28.35
2023-03-17T11:22:23.016Z,28.98
2023-03-17T11:26:23.023Z,29.53
2023-03-17T11:30:22.982Z,30.13
2023-03-17T11:34:23.226Z,30.56
2023-03-17T11:38:23.754Z,30.38
2023-03-17T11:42:23.733Z,30.89
2023-03-17T11:46:23.585Z,31.01
2023-03-17T11:50:23.737Z,31.50
2023-03-17T11:54:24.269Z,31.01
2023-03-17T11:58:24.008Z,31.08
2023-03-17T12:02:23.935Z,31.42
2023-03-17T12:06:23.910Z,31.37
2023-03-17T12:10:23.858Z,30.87
2023-03-17T12:14:24.223Z,30.88
2023-03-17T12:18:24.702Z,30.73
2023-03-17T12:22:24.215Z,30.83
2023-03-17T12:26:23.746Z,29.53
2023-03-17T12:30:23.718Z,29.54
2023-03-17T12:34:23.727Z,29.36
2023-03-17T12:38:23.733Z,29.19
2023-03-17T12:42:23.703Z,29.35
2023-03-17T12:46:23.688Z,29.00
2023-03-17T12:50:23.633Z,28.57
2023-03-17T12:54:23.763Z,28.01
2023-03-17T12:58:25.974Z,27.09
2023-03-17T13:02:23.507Z,25.92
2023-03-17T13:06:23.434Z,24.68
2023-03-17T13:10:23.432Z,24.95
2023-03-17T13:14:23.372Z,24.75
2023-03-17T13:18:23.344Z,23.77
2023-03-17T13:22:23.334Z,23.36
2023-03-17T13:26:23.267Z,22.74
2023-03-17T13:30:23.313Z,22.22
2023-03-17T13:34:23.207Z,21.32
2023-03-17T13:38:23.161Z,20.96
2023-03-17T13:42:23.172Z,21.15
2023-03-17T13:46:23.139Z,20.77
2023-03-17T13:50:23.062Z,20.76
2023-03-17T13:54:23.038Z,20.01
2023-03-17T13:58:23.022Z,19.49
2023-03-17T14:02:22.972Z,19.65
2023-03-17T14:06:22.942Z,19.59
2023-03-17T14:10:22.901Z,19.31
2023-03-17T14:14:32.574Z,19.36
2023-03-17T14:18:23.835Z,19.37
2023-03-17T14:22:22.780Z,19.42
2023-03-17T14:26:22.716Z,19.31
2023-03-17T14:30:22.693Z,19.09
2023-03-17T14:34:22.690Z,19.59
2023-03-17T14:38:22.842Z,20.72
2023-03-17T14:42:22.954Z,21.62
2023-03-17T14:46:23.191Z,23.11
2023-03-17T14:50:23.177Z,23.69
2023-03-17T14:54:23.338Z,24.80
2023-03-17T14:58:23.445Z,25.87
2023-03-17T15:02:23.652Z,26.24
2023-03-17T15:06:23.750Z,26.17
2023-03-17T15:10:23.864Z,26.14
2023-03-17T15:14:23.953Z,26.33
2023-03-17T15:18:24.140Z,26.38
2023-03-17T15:22:24.272Z,26.46
2023-03-17T15:26:24.395Z,26.53
2023-03-17T15:30:24.771Z,26.61
2023-03-17T15:34:24.641Z,26.68
2023-03-17T15:38:24.794Z,26.78
2023-03-17T15:42:24.957Z,26.82
2023-03-17T15:46:25.072Z,26.89
2023-03-17T15:50:25.200Z,27.03
2023-03-17T15:54:25.354Z,27.06
2023-03-17T15:58:25.463Z,27.11
2023-03-17T16:02:25.641Z,27.21
2023-03-17T16:06:25.784Z,27.23
2023-03-17T16:10:25.904Z,27.27
2023-03-17T16:14:26.034Z,27.37
2023-03-17T16:18:26.177Z,27.37
2023-03-17T16:22:27.311Z,27.46
2023-03-17T16:26:26.491Z,27.52
2023-03-17T16:30:26.666Z,27.58
2023-03-17T16:34:26.798Z,27.58
2023-03-17T16:38:26.967Z,27.64
2023-03-17T16:42:27.133Z,27.69
2023-03-17T16:46:27.484Z,27.76
2023-03-17T16:50:27.514Z,27.80
2023-03-17T16:54:27.664Z,27.85
2023-03-17T16:58:27.859Z,27.89
2023-03-17T17:02:28.083Z,27.94
2023-03-17T17:06:28.208Z,27.97
2023-03-17T17:10:28.462Z,28.05
2023-03-17T17:14:28.580Z,28.08
2023-03-17T17:18:28.778Z,28.12
2023-03-17T17:22:28.911Z,28.16
2023-03-17T17:26:29.153Z,28.24
2023-03-17T17:30:29.832Z,28.21
2023-03-17T17:34:29.538Z,28.23
2023-03-17T17:38:29.774Z,28.25
2023-03-17T17:42:29.709Z,28.24
2023-03-17T17:46:29.712Z,28.33
2023-03-17T17:50:30.026Z,28.35
2023-03-17T17:54:29.587Z,28.37
2023-03-17T17:58:29.600Z,28.35
2023-03-17T18:02:29.536Z,28.39
2023-03-17T18:06:29.494Z,28.44
2023-03-17T18:10:29.498Z,28.38
2023-03-17T18:14:29.433Z,28.39
2023-03-17T18:18:29.383Z,28.42
2023-03-17T18:22:29.580Z,28.45
2023-03-17T18:26:29.565Z,28.41
2023-03-17T18:30:29.947Z,28.44
2023-03-17T18:34:29.472Z,28.42
2023-03-17T18:38:29.446Z,28.42
2023-03-17T18:42:29.383Z,28.41
2023-03-17T18:46:29.323Z,28.42
2023-03-17T18:50:29.685Z,28.46
2023-03-17T18:54:29.302Z,28.36
2023-03-17T18:58:29.314Z,28.36
2023-03-17T19:02:29.277Z,28.37
2023-03-17T19:06:29.231Z,28.34
2023-03-17T19:10:29.428Z,28.35
2023-03-17T19:14:29.198Z,28.31
2023-03-17T19:18:29.164Z,28.30
2023-03-17T19:22:29.097Z,28.30
2023-03-17T19:26:29.442Z,28.38
2023-03-17T19:30:29.238Z,28.35
2023-03-17T19:34:28.993Z,28.36
2023-03-17T19:38:29.125Z,28.31
2023-03-17T19:42:29.076Z,28.31
2023-03-17T19:46:29.072Z,28.25
2023-03-17T19:50:29.319Z,28.30
2023-03-17T19:54:28.944Z,28.32
2023-03-17T19:58:28.908Z,28.34
2023-03-17T20:02:28.871Z,28.31
2023-03-17T20:06:28.833Z,28.34
2023-03-17T20:10:29.028Z,28.32
2023-03-17T20:14:28.789Z,28.30
2023-03-17T20:18:28.909Z,28.35
2023-03-17T20:22:28.892Z,28.34
2023-03-17T20:26:28.831Z,28.29
2023-03-17T20:30:28.859Z,28.25
2023-03-17T20:34:28.757Z,28.25
2023-03-17T20:38:28.744Z,28.27
2023-03-17T20:42:28.665Z,28.20
2023-03-17T20:46:28.666Z,28.23
2023-03-17T20:50:28.600Z,28.15
2023-03-17T20:54:28.574Z,28.14
2023-03-17T20:58:28.558Z,28.13
2023-03-17T21:02:28.512Z,28.11
2023-03-17T21:06:28.633Z,28.10
2023-03-17T21:10:28.820Z,28.09
2023-03-17T21:14:28.981Z,28.07
2023-03-17T21:18:29.098Z,28.09
2023-03-17T21:22:29.260Z,28.03
2023-03-17T21:26:29.446Z,28.02
2023-03-17T21:30:29.825Z,27.96
2023-03-17T21:34:29.763Z,27.95
2023-03-17T21:38:29.884Z,27.95
2023-03-17T21:42:30.047Z,27.94
2023-03-17T21:46:30.170Z,27.91
2023-03-17T21:50:30.322Z,27.87
2023-03-17T21:54:30.378Z,27.90
2023-03-17T21:58:30.423Z,27.88
2023-03-17T22:02:30.490Z,27.84
2023-03-17T22:06:30.689Z,27.87
2023-03-17T22:10:30.975Z,27.82
2023-03-17T22:14:30.768Z,27.80
2023-03-17T22:18:30.835Z,27.78
2023-03-17T22:22:30.847Z,27.74
2023-03-17T22:26:30.856Z,27.82
2023-03-17T22:30:31.025Z,27.77
2023-03-17T22:34:30.909Z,27.77
2023-03-17T22:38:30.937Z,27.78
2023-03-17T22:42:30.899Z,27.74
2023-03-17T22:46:30.905Z,27.74
2023-03-17T22:50:31.192Z,27.78
2023-03-17T22:54:30.829Z,27.71
2023-03-17T22:58:30.834Z,27.69
2023-03-17T23:02:30.836Z,27.74
2023-03-17T23:06:30.828Z,27.70
2023-03-17T23:10:31.067Z,27.66
2023-03-17T23:14:30.765Z,27.66
2023-03-17T23:18:30.733Z,27.62
2023-03-17T23:22:30.726Z,27.55
2023-03-17T23:26:30.738Z,27.53
2023-03-17T23:30:31.242Z,27.48
2023-03-17T23:34:30.668Z,27.56
2023-03-17T23:38:30.651Z,27.49
2023-03-17T23:42:30.632Z,27.53
2023-03-17T23:46:30.731Z,27.45
2023-03-17T23:50:30.911Z,27.45
2023-03-17T23:54:30.606Z,27.35
2023-03-17T23:58:30.596Z,27.39
